Time;durP1;ratioP1;P1;durP2;ratioP2;P2;SDS_P1;SDS_P2;PMS_P1;PMS_P2;Temp;Humidity;BMP_temperature;BMP_pressure;BME280_temperature;BME280_humidity;BME280_pressure;Samples;Min_cycle;Max_cycle;Signal;HPM_P1;HPM_P2
2021/07/09 00:02:31;;;;;;;13.77;5.57;;;22.60;68.10;;;;;;4917665;29;20028;-76
2021/07/09 00:04:59;;;;;;;12.27;5.85;;;22.60;68.30;;;;;;4917536;29;20024;-76
2021/07/09 00:07:24;;;;;;;9.35;5.57;;;22.60;68.50;;;;;;4917471;29;20035;-76
2021/07/09 00:09:51;;;;;;;11.02;5.50;;;22.60;68.50;;;;;;4931829;29;20032;-76
2021/07/09 00:12:17;;;;;;;11.75;5.70;;;22.60;69.10;;;;;;4917403;29;20024;-76
2021/07/09 00:14:43;;;;;;;9.15;5.18;;;22.60;68.50;;;;;;4917361;29;20390;-76
2021/07/09 00:17:09;;;;;;;8.05;4.68;;;22.50;68.60;;;;;;4917172;29;20471;-76
2021/07/09 00:19:35;;;;;;;8.82;5.60;;;22.50;68.70;;;;;;4917285;29;20032;-76
2021/07/09 00:22:02;;;;;;;10.10;4.60;;;22.50;68.80;;;;;;4917182;29;20028;-76
2021/07/09 00:24:28;;;;;;;10.63;5.30;;;22.50;68.90;;;;;;4900271;29;20024;-76
2021/07/09 00:26:54;;;;;;;9.38;4.80;;;22.40;69.00;;;;;;4900145;29;20035;-76
2021/07/09 00:29:20;;;;;;;8.52;5.50;;;22.50;69.10;;;;;;4900227;29;20054;-76
2021/07/09 00:31:46;;;;;;;9.25;5.70;;;22.40;69.20;;;;;;4901303;29;20790;-77
2021/07/09 00:34:12;;;;;;;10.93;5.40;;;22.40;69.30;;;;;;4927194;29;20018;-76
2021/07/09 00:36:38;;;;;;;7.15;4.93;;;22.40;69.40;;;;;;4902090;29;20038;-76
2021/07/09 00:39:07;;;;;;;9.95;4.68;;;22.40;69.50;;;;;;4917710;29;20060;-77
2021/07/09 00:41:32;;;;;;;6.80;4.40;;;22.40;69.50;;;;;;4916870;29;20028;-77
2021/07/09 00:43:59;;;;;;;10.77;4.25;;;22.40;69.60;;;;;;4916799;29;20105;-77
2021/07/09 00:46:32;;;;;;;10.93;4.55;;;22.40;69.60;;;;;;4916735;29;20035;-77
2021/07/09 00:48:58;;;;;;;10.57;4.60;;;22.40;69.70;;;;;;4916806;29;20477;-77
2021/07/09 00:51:24;;;;;;;7.43;4.70;;;22.40;69.70;;;;;;4916924;29;20043;-77
2021/07/09 00:53:50;;;;;;;10.00;4.72;;;22.40;69.70;;;;;;4916893;29;20044;-77
2021/07/09 00:56:15;;;;;;;7.78;4.78;;;22.40;69.80;;;;;;4916780;29;20139;-77
2021/07/09 00:58:41;;;;;;;11.77;5.70;;;22.40;69.90;;;;;;4916935;29;20427;-77
2021/07/09 01:01:07;;;;;;;9.13;5.30;;;22.30;69.80;;;;;;4916649;29;20035;-77
2021/07/09 01:03:33;;;;;;;12.77;5.10;;;22.30;69.90;;;;;;4916689;29;20020;-76
2021/07/09 01:05:59;;;;;;;17.30;8.55;;;22.30;70.00;;;;;;4916543;29;20065;-76
2021/07/09 01:08:25;;;;;;;10.70;6.25;;;22.30;70.10;;;;;;4899423;29;20068;-76
2021/07/09 01:10:50;;;;;;;12.73;6.80;;;22.30;70.10;;;;;;4916355;29;20039;-76
2021/07/09 01:13:17;;;;;;;10.10;5.05;;;22.20;70.00;;;;;;4916352;29;20497;-75
2021/07/09 01:15:42;;;;;;;9.55;4.68;;;22.20;70.20;;;;;;4930572;29;20101;-76
2021/07/09 01:18:08;;;;;;;7.28;4.50;;;22.10;70.40;;;;;;4916261;29;20095;-76
2021/07/09 01:20:34;;;;;;;9.85;5.63;;;22.10;70.50;;;;;;4916262;29;20107;-76
2021/07/09 01:23:02;;;;;;;9.73;5.65;;;22.10;70.60;;;;;;4915964;29;20032;-76
2021/07/09 01:25:29;;;;;;;17.10;5.97;;;22.10;70.70;;;;;;4916181;29;20352;-76
2021/07/09 01:28:06;;;;;;;11.40;7.03;;;22.10;70.80;;;;;;4916147;29;20020;-76
2021/07/09 01:30:34;;;;;;;8.23;5.78;;;22.10;70.90;;;;;;4916064;29;20021;-76
2021/07/09 01:32:59;;;;;;;11.55;4.80;;;22.10;70.80;;;;;;4899057;29;20028;-76
2021/07/09 01:35:27;;;;;;;11.52;5.43;;;22.10;70.80;;;;;;4915870;29;20560;-76
2021/07/09 01:37:58;;;;;;;9.85;5.35;;;22.00;70.90;;;;;;4915887;29;20020;-76
2021/07/09 01:40:25;;;;;;;7.25;5.75;;;22.00;71.10;;;;;;4915894;29;20107;-76
2021/07/09 01:42:51;;;;;;;10.63;5.57;;;22.00;71.20;;;;;;4915398;29;20530;-76
2021/07/09 01:45:17;;;;;;;7.43;5.40;;;22.00;71.20;;;;;;4915868;29;20032;-76
2021/07/09 01:47:42;;;;;;;6.63;4.72;;;22.00;71.20;;;;;;4915644;29;20094;-76
2021/07/09 01:50:09;;;;;;;6.65;4.88;;;22.00;71.30;;;;;;4915446;29;20094;-76
2021/07/09 01:52:35;;;;;;;7.47;4.80;;;21.90;71.20;;;;;;4915822;29;20016;-76
2021/07/09 01:55:02;;;;;;;9.27;5.78;;;22.00;71.50;;;;;;4915606;29;20055;-76
2021/07/09 01:57:28;;;;;;;7.63;5.18;;;21.90;71.60;;;;;;4915641;29;20074;-76
2021/07/09 01:59:55;;;;;;;9.60;5.55;;;21.90;71.60;;;;;;4898583;29;20482;-76
2021/07/09 02:02:21;;;;;;;10.63;4.70;;;21.90;71.60;;;;;;4915564;29;20020;-77
2021/07/09 02:04:53;;;;;;;6.90;4.78;;;21.90;71.70;;;;;;4898711;29;20423;-76
2021/07/09 02:07:20;;;;;;;10.98;5.82;;;21.90;71.70;;;;;;4915954;29;20064;-76
2021/07/09 02:09:48;;;;;;;11.38;5.65;;;22.00;71.80;;;;;;4915924;29;20096;-76
2021/07/09 02:12:16;;;;;;;8.93;5.25;;;22.00;71.80;;;;;;4915840;29;20809;-76
2021/07/09 02:14:42;;;;;;;6.05;5.13;;;22.00;71.80;;;;;;4898540;29;20036;-76
2021/07/09 02:17:10;;;;;;;18.88;6.00;;;22.10;71.90;;;;;;4898665;29;20033;-76
2021/07/09 02:19:37;;;;;;;14.55;5.25;;;22.50;71.80;;;;;;4898506;29;20115;-76
2021/07/09 02:22:05;;;;;;;11.57;5.97;;;22.90;71.20;;;;;;4915722;29;20497;-76
2021/07/09 02:24:32;;;;;;;15.15;5.65;;;23.40;70.40;;;;;;4915933;29;20040;-76
2021/07/09 02:26:59;;;;;;;11.63;5.32;;;23.90;69.30;;;;;;4929514;29;20028;-77
2021/07/09 02:29:25;;;;;;;11.85;5.30;;;24.50;68.10;;;;;;4920037;29;20462;-77
2021/07/09 02:31:51;;;;;;;15.30;6.13;;;25.10;66.80;;;;;;4916344;29;20038;-77
2021/07/09 02:34:17;;;;;;;13.15;6.13;;;25.70;65.50;;;;;;4915989;29;20036;-77
2021/07/09 02:36:43;;;;;;;11.45;5.93;;;26.30;64.40;;;;;;4915510;29;20036;-77
2021/07/09 02:39:08;;;;;;;8.80;5.55;;;26.90;63.00;;;;;;4915434;29;20029;-77
2021/07/09 02:41:34;;;;;;;9.73;5.55;;;27.40;61.80;;;;;;4915381;29;20029;-77
2021/07/09 02:44:00;;;;;;;18.05;7.15;;;27.80;60.70;;;;;;4915452;29;20426;-77
2021/07/09 02:46:26;;;;;;;17.17;7.10;;;28.30;59.90;;;;;;4915333;29;20064;-77
2021/07/09 02:48:51;;;;;;;17.13;5.28;;;28.90;58.90;;;;;;4915367;29;20382;-78
2021/07/09 02:51:17;;;;;;;8.63;4.45;;;29.50;57.80;;;;;;4915235;29;20036;-77
2021/07/09 02:53:43;;;;;;;17.25;6.20;;;30.10;56.60;;;;;;4915704;29;20056;-77
2021/07/09 02:56:08;;;;;;;14.68;5.60;;;30.70;55.70;;;;;;4918790;29;20031;-77
2021/07/09 02:58:34;;;;;;;12.88;5.93;;;31.30;54.60;;;;;;4918610;29;20032;-78
2021/07/09 03:01:00;;;;;;;26.77;6.63;;;32.00;53.50;;;;;;4901598;29;20020;-78
2021/07/09 03:03:26;;;;;;;27.35;6.32;;;32.70;52.40;;;;;;4918731;29;20030;-78
2021/07/09 03:05:51;;;;;;;19.35;6.30;;;33.40;51.10;;;;;;4901570;29;20032;-78
2021/07/09 03:08:17;;;;;;;13.75;5.90;;;34.10;50.10;;;;;;4918468;29;20101;-78
2021/07/09 03:10:43;;;;;;;18.52;8.35;;;34.70;49.10;;;;;;4901476;29;20032;-78
2021/07/09 03:13:09;;;;;;;20.35;8.02;;;35.30;48.10;;;;;;4918516;29;20043;-78
2021/07/09 03:15:34;;;;;;;20.27;6.72;;;35.80;47.10;;;;;;4918722;29;20040;-78
2021/07/09 03:18:00;;;;;;;17.15;7.45;;;36.30;46.40;;;;;;4933087;29;20039;-78
2021/07/09 03:20:26;;;;;;;13.82;6.43;;;36.70;45.70;;;;;;4918102;29;20518;-78
2021/07/09 03:22:51;;;;;;;13.13;5.97;;;37.30;44.90;;;;;;4918195;29;20028;-78
2021/07/09 03:25:17;;;;;;;11.35;4.93;;;37.70;44.20;;;;;;4901447;29;20071;-77
2021/07/09 03:27:43;;;;;;;12.02;6.55;;;38.20;43.80;;;;;;4901232;29;20467;-78
2021/07/09 03:30:11;;;;;;;17.30;7.43;;;38.70;43.30;;;;;;4918479;29;20024;-77
2021/07/09 03:32:37;;;;;;;16.40;7.45;;;39.20;42.70;;;;;;4918074;29;20020;-77
2021/07/09 03:35:04;;;;;;;9.70;5.90;;;39.60;41.90;;;;;;4918168;29;20431;-77
2021/07/09 03:37:30;;;;;;;11.40;6.65;;;39.90;41.40;;;;;;4917986;29;20024;-77
2021/07/09 03:39:56;;;;;;;9.18;5.35;;;40.20;41.10;;;;;;4917983;29;20364;-77
2021/07/09 03:42:21;;;;;;;10.77;4.80;;;40.50;40.60;;;;;;4917821;29;20028;-77
2021/07/09 03:44:47;;;;;;;8.13;4.05;;;40.80;40.30;;;;;;4917626;29;20092;-77
2021/07/09 03:47:13;;;;;;;12.15;4.05;;;41.10;40.00;;;;;;4900607;29;20028;-76
2021/07/09 03:49:39;;;;;;;12.40;4.00;;;41.40;39.60;;;;;;4917697;29;20518;-77
2021/07/09 03:52:06;;;;;;;6.63;4.00;;;41.80;39.20;;;;;;4917573;29;20035;-77
2021/07/09 03:54:33;;;;;;;6.03;4.15;;;42.10;38.80;;;;;;4917595;29;20079;-78
2021/07/09 03:56:59;;;;;;;11.57;5.20;;;42.40;38.40;;;;;;4917626;29;20039;-78
2021/07/09 03:59:24;;;;;;;8.15;5.07;;;42.80;38.10;;;;;;4917777;29;20028;-77
2021/07/09 04:01:50;;;;;;;10.18;5.22;;;43.10;37.70;;;;;;4917483;29;20490;-77
2021/07/09 04:04:16;;;;;;;15.00;6.90;;;43.30;37.50;;;;;;4900351;29;20028;-78
2021/07/09 04:06:41;;;;;;;12.25;7.47;;;43.70;37.40;;;;;;4917050;29;20036;-77
2021/07/09 04:09:07;;;;;;;7.38;4.93;;;44.00;37.00;;;;;;4900572;29;20040;-78
2021/07/09 04:11:33;;;;;;;9.48;4.00;;;44.10;36.70;;;;;;4917222;29;20035;-77
2021/07/09 04:13:58;;;;;;;5.93;3.78;;;44.40;36.50;;;;;;4917161;29;20056;-79
2021/07/09 04:16:24;;;;;;;12.43;4.47;;;44.30;36.00;;;;;;4917117;29;20036;-78
2021/07/09 04:18:50;;;;;;;12.75;5.57;;;44.00;36.20;;;;;;4916949;29;20024;-78
2021/07/09 04:21:15;;;;;;;4.30;3.90;;;44.10;36.30;;;;;;4916736;29;20431;-78
2021/07/09 04:23:41;;;;;;;6.07;3.78;;;44.40;36.30;;;;;;4916981;29;20035;-78
2021/07/09 04:26:07;;;;;;;6.28;3.90;;;44.70;36.20;;;;;;4916824;29;20131;-78
2021/07/09 04:28:33;;;;;;;5.50;3.80;;;45.00;35.90;;;;;;4916899;29;20040;-78
2021/07/09 04:30:59;;;;;;;7.53;4.70;;;45.30;35.40;;;;;;4916555;29;20028;-77
2021/07/09 04:33:24;;;;;;;6.75;4.70;;;45.30;35.40;;;;;;4916607;29;20080;-77
2021/07/09 04:35:51;;;;;;;10.43;4.78;;;45.40;35.20;;;;;;4916583;29;20076;-77
2021/07/09 04:38:17;;;;;;;8.73;4.18;;;45.60;35.10;;;;;;4916647;29;20028;-77
2021/07/09 04:40:43;;;;;;;11.70;4.65;;;45.70;34.90;;;;;;4916417;29;20078;-78
2021/07/09 04:43:09;;;;;;;13.20;4.70;;;45.80;34.60;;;;;;4916403;29;20403;-77
2021/07/09 04:45:35;;;;;;;8.27;4.03;;;46.10;34.60;;;;;;4916267;29;20071;-77
2021/07/09 04:48:00;;;;;;;14.93;4.47;;;46.10;34.40;;;;;;4916380;29;20103;-79
2021/07/09 04:50:26;;;;;;;9.95;4.60;;;46.30;34.30;;;;;;4916423;29;20039;-78
2021/07/09 04:52:52;;;;;;;8.07;4.10;;;46.70;34.30;;;;;;4899531;29;20024;-78
2021/07/09 04:55:17;;;;;;;6.85;4.10;;;47.00;34.10;;;;;;4916188;29;20052;-78
2021/07/09 04:57:43;;;;;;;8.70;4.57;;;47.20;33.90;;;;;;4915918;29;20112;-78
2021/07/09 05:00:10;;;;;;;11.45;4.22;;;47.40;33.80;;;;;;4915961;29;20463;-78
2021/07/09 05:02:39;;;;;;;7.82;4.32;;;47.60;33.30;;;;;;4898712;29;20032;-77
2021/07/09 05:05:07;;;;;;;8.43;4.00;;;47.80;33.30;;;;;;4915249;29;20024;-77
2021/07/09 05:07:33;;;;;;;11.18;4.72;;;48.00;33.10;;;;;;4916071;29;20058;-77
2021/07/09 05:09:58;;;;;;;9.90;4.50;;;48.00;32.80;;;;;;4916233;29;20123;-77
2021/07/09 05:12:24;;;;;;;11.10;4.50;;;48.00;32.80;;;;;;4916052;29;20024;-78
2021/07/09 05:14:50;;;;;;;8.48;4.18;;;48.10;32.50;;;;;;4915587;29;20040;-78
2021/07/09 05:17:15;;;;;;;4.72;4.20;;;48.20;32.40;;;;;;4915058;29;20031;-78
2021/07/09 05:19:41;;;;;;;9.23;4.38;;;48.20;32.20;;;;;;4915259;29;20032;-78
2021/07/09 05:22:10;;;;;;;5.38;4.47;;;48.00;32.20;;;;;;4915775;29;20028;-79
2021/07/09 05:24:36;;;;;;;8.68;4.50;;;48.10;32.40;;;;;;4915788;29;20084;-78
2021/07/09 05:27:02;;;;;;;10.15;6.55;;;48.10;31.90;;;;;;4915687;29;20131;-79
2021/07/09 05:29:28;;;;;;;7.63;4.13;;;47.60;31.60;;;;;;4915714;29;20032;-78
2021/07/09 05:31:54;;;;;;;6.60;3.80;;;47.30;31.80;;;;;;4915786;29;20038;-78
2021/07/09 05:34:20;;;;;;;9.75;4.38;;;47.30;31.70;;;;;;4915517;29;20028;-78
2021/07/09 05:36:45;;;;;;;12.40;4.40;;;47.20;31.80;;;;;;4915609;29;20056;-78
2021/07/09 05:39:13;;;;;;;14.68;4.20;;;47.10;31.90;;;;;;4915434;29;20035;-79
2021/07/09 05:41:39;;;;;;;8.68;4.40;;;47.00;32.10;;;;;;4915501;29;20016;-78
2021/07/09 05:44:05;;;;;;;8.27;4.72;;;47.30;32.00;;;;;;4898263;29;20028;-78
2021/07/09 05:46:32;;;;;;;7.85;3.83;;;47.70;31.80;;;;;;4915744;29;20090;-78
2021/07/09 05:48:57;;;;;;;7.13;3.88;;;48.10;31.50;;;;;;4915553;29;20024;-78
2021/07/09 05:51:23;;;;;;;14.35;5.15;;;48.50;30.80;;;;;;4929927;29;20039;-78
2021/07/09 05:53:49;;;;;;;9.85;4.68;;;48.70;31.10;;;;;;4915364;29;20451;-77
2021/07/09 05:56:15;;;;;;;5.95;4.80;;;49.00;31.00;;;;;;4929608;29;20482;-77
2021/07/09 05:58:40;;;;;;;7.55;4.47;;;49.20;31.20;;;;;;4898912;29;20091;-78
2021/07/09 06:01:06;;;;;;;10.40;5.07;;;49.30;30.50;;;;;;4915660;29;20055;-78
2021/07/09 06:03:32;;;;;;;4.80;4.30;;;49.20;30.20;;;;;;4915176;29;20103;-78
2021/07/09 06:05:57;;;;;;;17.63;4.65;;;48.80;30.10;;;;;;4915226;29;20110;-77
2021/07/09 06:08:23;;;;;;;11.45;5.03;;;48.70;30.50;;;;;;4915313;29;20036;-78
2021/07/09 06:10:49;;;;;;;10.88;4.75;;;48.90;30.70;;;;;;4915782;29;20379;-79
2021/07/09 06:13:14;;;;;;;11.73;6.18;;;49.20;30.40;;;;;;4915574;29;20152;-79
2021/07/09 06:15:40;;;;;;;5.18;3.65;;;49.40;30.10;;;;;;4915363;29;20118;-79
2021/07/09 06:18:06;;;;;;;6.43;4.20;;;49.50;29.90;;;;;;4914234;29;20471;-78
2021/07/09 06:20:32;;;;;;;10.40;4.28;;;49.40;29.70;;;;;;4929238;29;20024;-78
2021/07/09 06:22:58;;;;;;;7.03;4.15;;;49.50;30.00;;;;;;4897485;29;20030;-78
2021/07/09 06:25:24;;;;;;;4.80;4.13;;;49.40;29.80;;;;;;4914760;29;20176;-79
2021/07/09 06:27:50;;;;;;;9.98;5.65;;;49.20;29.60;;;;;;4929968;29;20076;-76
2021/07/09 06:30:16;;;;;;;7.28;4.07;;;48.70;29.80;;;;;;4918091;29;20044;-79
2021/07/09 06:32:42;;;;;;;13.45;4.72;;;48.70;30.10;;;;;;4917457;29;20036;-79
2021/07/09 06:35:09;;;;;;;10.35;5.38;;;48.70;30.20;;;;;;4918086;29;20035;-79
2021/07/09 06:37:36;;;;;;;6.55;4.57;;;48.80;30.00;;;;;;4918022;29;20024;-79
2021/07/09 06:40:04;;;;;;;6.05;4.38;;;48.70;29.70;;;;;;4918089;29;20028;-79
2021/07/09 06:42:29;;;;;;;5.07;3.72;;;48.70;29.80;;;;;;4918026;29;20028;-79
2021/07/09 06:44:55;;;;;;;9.98;4.25;;;48.60;29.90;;;;;;4917911;29;20035;-78
2021/07/09 06:47:21;;;;;;;8.32;4.30;;;48.50;29.90;;;;;;4917809;29;20111;-78
2021/07/09 06:49:47;;;;;;;8.20;4.18;;;48.40;30.10;;;;;;4918273;29;20038;-86
2021/07/09 06:52:12;;;;;;;8.60;4.05;;;48.10;30.00;;;;;;4918075;29;20086;-78
2021/07/09 06:54:38;;;;;;;8.40;4.38;;;47.80;30.30;;;;;;4917646;29;20471;-78
2021/07/09 06:57:04;;;;;;;7.97;4.28;;;47.60;30.50;;;;;;4917717;29;20023;-79
2021/07/09 06:59:30;;;;;;;9.60;3.85;;;47.50;30.60;;;;;;4917540;29;20355;-79
2021/07/09 07:01:56;;;;;;;19.02;4.53;;;47.40;30.10;;;;;;4917738;29;20051;-76
2021/07/09 07:04:23;;;;;;;11.98;4.50;;;47.30;30.10;;;;;;4917408;29;20028;-78
2021/07/09 07:06:49;;;;;;;12.45;4.45;;;47.10;30.10;;;;;;4917187;29;20093;-77
2021/07/09 07:09:15;;;;;;;6.47;3.47;;;47.00;30.20;;;;;;4931917;29;20032;-78
2021/07/09 07:11:41;;;;;;;5.13;3.80;;;46.90;30.20;;;;;;4917071;29;20542;-77
2021/07/09 07:14:06;;;;;;;6.28;4.05;;;46.40;30.00;;;;;;4917323;29;20032;-78
2021/07/09 07:16:32;;;;;;;7.95;3.80;;;46.10;30.00;;;;;;4916416;29;20091;-78
2021/07/09 07:18:58;;;;;;;7.07;4.05;;;46.00;30.00;;;;;;4899910;29;20043;-78
2021/07/09 07:21:24;;;;;;;5.30;4.00;;;46.00;30.10;;;;;;4917195;29;20092;-79
2021/07/09 07:23:49;;;;;;;3.97;3.40;;;45.90;30.10;;;;;;4916721;29;20036;-77
2021/07/09 07:26:15;;;;;;;11.18;5.28;;;45.90;29.70;;;;;;4916686;29;20052;-78
2021/07/09 07:28:41;;;;;;;10.85;4.18;;;45.40;29.80;;;;;;4916552;29;20032;-77
2021/07/09 07:31:10;;;;;;;9.88;4.65;;;45.10;30.00;;;;;;4916703;29;20036;-78
2021/07/09 07:33:38;;;;;;;6.82;3.80;;;45.10;30.40;;;;;;4916735;29;20096;-78
2021/07/09 07:36:04;;;;;;;10.18;5.20;;;45.20;30.50;;;;;;4916525;29;20028;-78
2021/07/09 07:38:30;;;;;;;7.55;4.00;;;45.20;30.80;;;;;;4917134;29;20032;-79
2021/07/09 07:40:56;;;;;;;7.22;4.35;;;45.20;31.00;;;;;;4916009;29;20016;-79
2021/07/09 07:43:22;;;;;;;7.65;4.10;;;45.30;31.10;;;;;;4916751;29;20364;-79
2021/07/09 07:45:47;;;;;;;7.15;4.32;;;45.40;30.80;;;;;;4916783;29;20406;-79
2021/07/09 07:48:13;;;;;;;7.43;4.28;;;45.00;30.40;;;;;;4916836;29;20032;-79
2021/07/09 07:50:39;;;;;;;11.32;6.22;;;44.40;30.40;;;;;;4916728;29;20455;-79
2021/07/09 07:53:05;;;;;;;5.80;4.50;;;44.10;31.20;;;;;;4916784;29;20348;-78
2021/07/09 07:55:31;;;;;;;6.97;4.47;;;43.70;31.40;;;;;;4916436;29;20064;-78
2021/07/09 07:57:57;;;;;;;5.50;4.70;;;43.50;32.10;;;;;;4916822;29;20083;-79
2021/07/09 08:00:22;;;;;;;10.00;5.50;;;43.30;31.70;;;;;;4916195;29;20031;-79
2021/07/09 08:02:48;;;;;;;6.05;4.45;;;42.90;32.00;;;;;;4916222;29;20539;-80
2021/07/09 08:05:14;;;;;;;6.32;4.25;;;42.90;32.30;;;;;;4916582;29;20035;-79
2021/07/09 08:07:42;;;;;;;10.30;5.07;;;42.80;32.30;;;;;;4916408;29;20116;-78
2021/07/09 08:10:08;;;;;;;8.48;5.10;;;42.30;32.40;;;;;;4916687;29;20031;-78
2021/07/09 08:12:34;;;;;;;7.78;5.05;;;41.90;33.20;;;;;;4918098;29;20092;-79
2021/07/09 08:15:00;;;;;;;5.60;3.97;;;41.70;33.50;;;;;;4916105;29;20091;-79
2021/07/09 08:17:26;;;;;;;6.88;4.60;;;41.60;33.50;;;;;;4915971;29;20492;-78
2021/07/09 08:19:52;;;;;;;4.45;4.00;;;41.20;33.50;;;;;;4916234;29;20036;-78
2021/07/09 08:22:17;;;;;;;9.50;4.03;;;40.90;33.60;;;;;;4916509;29;20368;-78
2021/07/09 08:24:44;;;;;;;7.55;4.60;;;40.50;34.00;;;;;;4916486;29;20106;-77
2021/07/09 08:27:10;;;;;;;7.13;4.28;;;40.40;34.50;;;;;;4916157;29;20027;-76
2021/07/09 08:29:36;;;;;;;7.68;4.10;;;40.30;34.30;;;;;;4916053;29;20028;-78
2021/07/09 08:32:02;;;;;;;9.27;4.63;;;40.20;33.80;;;;;;4915533;29;20039;-77
2021/07/09 08:34:27;;;;;;;9.30;4.13;;;39.70;34.00;;;;;;4915693;29;20052;-79
2021/07/09 08:36:53;;;;;;;13.25;4.30;;;39.20;34.60;;;;;;4915866;29;20071;-78
2021/07/09 08:39:19;;;;;;;9.30;3.92;;;39.00;34.80;;;;;;4915919;29;20083;-80
2021/07/09 08:41:46;;;;;;;10.07;4.10;;;38.70;34.50;;;;;;4915363;29;20590;-78
2021/07/09 08:44:13;;;;;;;5.57;3.80;;;38.50;34.90;;;;;;4915331;29;20032;-79
2021/07/09 08:46:39;;;;;;;8.70;4.97;;;38.60;35.20;;;;;;4915078;29;20040;-78
2021/07/09 08:49:08;;;;;;;5.32;4.30;;;38.60;35.00;;;;;;4916385;29;20127;-80
2021/07/09 08:51:34;;;;;;;7.75;4.10;;;38.40;35.20;;;;;;4916090;29;20028;-80
2021/07/09 08:54:00;;;;;;;5.72;3.85;;;38.10;35.50;;;;;;4916274;29;20059;-79
2021/07/09 08:56:26;;;;;;;6.90;4.13;;;37.80;36.00;;;;;;4916458;29;20347;-79
2021/07/09 08:58:52;;;;;;;6.40;3.88;;;37.80;36.50;;;;;;4899031;29;20024;-78
2021/07/09 09:01:18;;;;;;;10.52;7.95;;;38.00;36.40;;;;;;4915345;29;20387;-74
2021/07/09 09:03:44;;;;;;;7.95;5.72;;;38.10;36.00;;;;;;4898270;29;20498;-76
2021/07/09 09:06:15;;;;;;;4.20;3.80;;;38.00;35.80;;;;;;4915277;29;20112;-79
2021/07/09 09:08:42;;;;;;;4.75;4.25;;;37.70;35.50;;;;;;4915485;29;20028;-79
2021/07/09 09:11:09;;;;;;;7.85;4.25;;;37.30;35.90;;;;;;4915658;29;20074;-79
2021/07/09 09:13:36;;;;;;;9.55;4.68;;;37.30;36.40;;;;;;4915768;29;20056;-80
2021/07/09 09:16:09;;;;;;;6.55;4.40;;;37.30;36.10;;;;;;4915154;29;20040;-78
2021/07/09 09:18:47;;;;;;;7.85;4.65;;;37.10;36.20;;;;;;4918331;29;20092;-81
2021/07/09 09:21:17;;;;;;;5.60;4.85;;;37.10;35.80;;;;;;4923572;29;20028;-83
2021/07/09 09:23:50;;;;;;;8.80;4.53;;;37.00;35.80;;;;;;4900505;29;20070;-83
2021/07/09 09:26:39;;;;;;;9.77;4.63;;;36.80;35.70;;;;;;4898496;29;20092;-83
2021/07/09 09:29:06;;;;;;;7.68;4.70;;;36.50;35.90;;;;;;4898917;29;20054;-83
2021/07/09 09:31:37;;;;;;;5.03;4.53;;;36.30;36.20;;;;;;4915637;29;20423;-83
2021/07/09 09:34:04;;;;;;;9.43;4.90;;;36.20;36.60;;;;;;4915083;29;20024;-81
2021/07/09 09:36:30;;;;;;;11.23;5.20;;;36.20;36.30;;;;;;4915721;29;20131;-83
2021/07/09 09:39:02;;;;;;;9.00;5.05;;;35.90;36.20;;;;;;4915292;29;20051;-82
2021/07/09 09:41:28;;;;;;;7.88;4.57;;;35.80;36.60;;;;;;4915353;29;20451;-83
2021/07/09 09:44:09;;;;;;;5.43;4.55;;;35.80;37.10;;;;;;4915397;29;20079;-81
2021/07/09 09:46:35;;;;;;;8.23;4.00;;;35.70;37.20;;;;;;4915125;29;20471;-83
2021/07/09 09:49:01;;;;;;;6.40;5.10;;;35.60;37.40;;;;;;4914352;29;20072;-81
2021/07/09 09:51:36;;;;;;;12.63;5.13;;;35.60;37.30;;;;;;4915131;29;20387;-77
2021/07/09 09:54:10;;;;;;;8.25;4.50;;;35.60;37.50;;;;;;4914077;29;20044;-79
2021/07/09 09:56:36;;;;;;;6.20;4.40;;;35.70;37.60;;;;;;4897196;29;20032;-77
2021/07/09 09:59:19;;;;;;;11.68;5.68;;;35.80;37.50;;;;;;4913896;29;20054;-80
2021/07/09 10:01:46;;;;;;;12.50;4.80;;;35.90;37.70;;;;;;4914037;29;20043;-78
2021/07/09 10:04:12;;;;;;;6.50;4.55;;;35.90;37.70;;;;;;4917365;29;20026;-79
2021/07/09 10:06:38;;;;;;;11.80;5.22;;;35.90;37.20;;;;;;4918018;29;20040;-78
2021/07/09 10:09:04;;;;;;;9.85;5.15;;;35.90;37.30;;;;;;4918363;29;20032;-79
2021/07/09 10:11:30;;;;;;;5.95;4.95;;;35.60;37.30;;;;;;4900854;29;20368;-79
2021/07/09 10:13:57;;;;;;;10.85;4.97;;;35.20;37.90;;;;;;4918089;29;20028;-79
2021/07/09 10:16:23;;;;;;;5.72;4.55;;;35.00;38.40;;;;;;4918237;29;20064;-79
2021/07/09 10:18:53;;;;;;;6.72;4.40;;;35.00;38.40;;;;;;4917876;29;20069;-77
2021/07/09 10:21:19;;;;;;;7.00;4.90;;;35.00;38.40;;;;;;4917938;29;20025;-79
2021/07/09 10:23:47;;;;;;;10.13;5.05;;;35.00;38.00;;;;;;4900612;29;20034;-79
2021/07/09 10:26:17;;;;;;;9.40;7.18;;;35.00;38.20;;;;;;4918221;29;20027;-79
2021/07/09 10:29:13;;;;;;;12.43;4.95;;;35.00;38.10;;;;;;4917875;29;20395;-79
2021/07/09 10:31:41;;;;;;;7.90;4.93;;;34.80;37.70;;;;;;4917862;29;20032;-78
2021/07/09 10:34:34;;;;;;;8.27;4.72;;;34.60;37.80;;;;;;4918194;29;20063;-79
2021/07/09 10:37:16;;;;;;;10.18;5.18;;;34.60;37.80;;;;;;4917581;29;20155;-79
2021/07/09 10:39:48;;;;;;;12.23;5.68;;;34.40;38.00;;;;;;4917828;29;20107;-79
2021/07/09 10:42:27;;;;;;;7.32;4.85;;;34.40;37.70;;;;;;4917873;29;20024;-79
2021/07/09 10:45:09;;;;;;;7.63;5.32;;;34.10;37.70;;;;;;4917747;29;20020;-79
2021/07/09 10:48:02;;;;;;;8.93;5.22;;;33.90;38.30;;;;;;4917519;29;20028;-79
2021/07/09 10:50:49;;;;;;;7.85;4.90;;;33.70;38.30;;;;;;4932307;29;20042;-79
2021/07/09 10:53:14;;;;;;;7.03;5.30;;;33.30;38.20;;;;;;4917168;29;20067;-78
2021/07/09 10:56:08;;;;;;;6.25;5.25;;;33.10;38.70;;;;;;4917465;29;20036;-77
2021/07/09 10:58:47;;;;;;;7.13;4.93;;;33.00;39.20;;;;;;4917068;29;20060;-80
2021/07/09 11:01:21;;;;;;;6.47;5.05;;;33.00;39.20;;;;;;4917394;29;20024;-78
2021/07/09 11:03:57;;;;;;;8.60;4.82;;;32.80;39.30;;;;;;4917226;29;20079;-80
2021/07/09 11:06:37;;;;;;;10.10;5.15;;;32.80;39.90;;;;;;4917614;29;20032;-78
2021/07/09 11:09:11;;;;;;;10.52;5.30;;;32.80;40.00;;;;;;4917662;29;20431;-82
2021/07/09 11:11:43;;;;;;;6.53;5.68;;;32.80;39.90;;;;;;4917357;29;20069;-76
2021/07/09 11:14:16;;;;;;;11.07;5.70;;;32.80;39.90;;;;;;4916623;29;20363;-79
2021/07/09 11:16:45;;;;;;;8.43;5.10;;;32.80;40.10;;;;;;4916825;29;20128;-79
2021/07/09 11:19:15;;;;;;;12.15;5.13;;;32.70;40.00;;;;;;4917301;29;20040;-79
2021/07/09 11:21:41;;;;;;;5.10;4.60;;;32.60;40.30;;;;;;4917509;29;20035;-79
2021/07/09 11:24:22;;;;;;;8.35;5.47;;;32.40;40.20;;;;;;4925418;29;20367;-80
2021/07/09 11:26:50;;;;;;;6.90;5.05;;;32.20;40.40;;;;;;4936262;29;20113;-80
2021/07/09 11:29:25;;;;;;;10.07;5.40;;;32.10;40.70;;;;;;4935202;29;20036;-80
2021/07/09 11:31:53;;;;;;;9.18;5.65;;;32.00;40.80;;;;;;4936162;29;20023;-79
2021/07/09 11:34:20;;;;;;;6.57;5.50;;;32.10;41.00;;;;;;4936534;29;20038;-81
2021/07/09 11:36:53;;;;;;;6.60;4.90;;;32.10;41.10;;;;;;4936772;29;20020;-81
2021/07/09 11:39:21;;;;;;;7.93;5.30;;;32.10;41.10;;;;;;4934993;29;20024;-80
2021/07/09 11:41:52;;;;;;;7.38;5.22;;;32.00;41.40;;;;;;4936078;29;20044;-80
2021/07/09 11:44:19;;;;;;;;;;;32.00;41.60;;;;;;4936290;29;20032;-81
2021/07/09 11:46:49;;;;;;;6.07;5.00;;;31.90;41.40;;;;;;4936224;29;19915;-81
2021/07/09 11:49:19;;;;;;;7.40;5.10;;;32.00;41.80;;;;;;4935780;29;20028;-82
2021/07/09 11:51:51;;;;;;;10.98;5.40;;;32.00;42.00;;;;;;4936732;29;20027;-81
2021/07/09 11:54:20;;;;;;;;;;;31.80;42.40;;;;;;4936712;29;20055;-74
2021/07/09 11:56:50;;;;;;;10.73;5.78;;;31.80;42.40;;;;;;4935563;29;19993;-74
2021/07/09 11:59:20;;;;;;;8.25;5.40;;;31.80;42.60;;;;;;4918228;29;20039;-74
2021/07/09 12:02:08;;;;;;;12.47;5.30;;;31.80;43.00;;;;;;4934714;29;20043;-74
2021/07/09 12:04:38;;;;;;;13.30;5.95;;;31.80;43.00;;;;;;4935273;29;20020;-75
2021/07/09 12:07:23;;;;;;;7.13;4.85;;;31.80;43.00;;;;;;4934668;29;20031;-75
2021/07/09 12:09:56;;;;;;;7.05;5.13;;;31.90;42.90;;;;;;4935229;29;20034;-75
2021/07/09 12:12:23;;;;;;;9.15;5.78;;;31.90;42.60;;;;;;4935171;29;20106;-75
2021/07/09 12:15:04;;;;;;;8.35;5.35;;;31.90;43.10;;;;;;4934694;29;20111;-75
2021/07/09 12:17:33;;;;;;;6.60;5.30;;;32.00;43.30;;;;;;4934999;29;20031;-75
2021/07/09 12:20:08;;;;;;;7.63;4.85;;;32.00;43.10;;;;;;4934954;29;20034;-75
2021/07/09 12:22:39;;;;;;;9.48;5.32;;;32.00;43.10;;;;;;4935108;29;20339;-75
2021/07/09 12:25:07;;;;;;;;;;;31.90;42.80;;;;;;4935647;29;20028;-76
2021/07/09 12:27:36;;;;;;;10.10;5.38;;;31.90;42.90;;;;;;4917006;29;20376;-75
2021/07/09 12:30:08;;;;;;;9.65;5.53;;;32.00;43.10;;;;;;4934890;29;20133;-76
2021/07/09 12:32:49;;;;;;;8.68;5.20;;;32.00;43.20;;;;;;4934594;29;20087;-76
2021/07/09 12:35:16;;;;;;;8.17;5.50;;;31.90;42.90;;;;;;4934848;29;20028;-75
2021/07/09 12:37:42;;;;;;;7.22;5.78;;;31.70;43.00;;;;;;4933154;29;20035;-75
2021/07/09 12:40:15;;;;;;;8.88;5.15;;;31.70;43.10;;;;;;4934694;29;20107;-74
2021/07/09 12:42:41;;;;;;;9.43;5.25;;;31.60;43.30;;;;;;4934487;29;20019;-75
2021/07/09 12:45:08;;;;;;;9.07;5.90;;;31.60;43.40;;;;;;4934486;29;20047;-75
2021/07/09 12:47:35;;;;;;;11.95;5.53;;;31.60;43.40;;;;;;4934522;29;20031;-74